Time;durP1;ratioP1;P1;durP2;ratioP2;P2;SDS_P1;SDS_P2;PMS_P1;PMS_P2;Temp;Humidity;BMP_temperature;BMP_pressure;BME280_temperature;BME280_humidity;BME280_pressure;Samples;Min_cycle;Max_cycle;Signal;HPM_P1;HPM_P2
2022/12/06 00:02:10;;;;;;;15.77;4.25;;;4.30;99.90;;;;;;5055188;28;20045;-33
2022/12/06 00:04:36;;;;;;;11.93;4.15;;;4.30;99.90;;;;;;5056583;28;20048;-34
2022/12/06 00:07:03;;;;;;;11.10;3.75;;;4.30;99.90;;;;;;5057582;28;20079;-34
2022/12/06 00:09:30;;;;;;;11.73;4.00;;;4.30;99.90;;;;;;5056592;28;20486;-34
2022/12/06 00:11:57;;;;;;;10.93;3.78;;;4.20;99.90;;;;;;5056559;28;20140;-33
2022/12/06 00:14:24;;;;;;;11.10;3.92;;;4.20;99.90;;;;;;5056400;28;20110;-33
2022/12/06 00:16:50;;;;;;;14.25;4.28;;;4.20;99.90;;;;;;5056383;28;20049;-32
2022/12/06 00:19:20;;;;;;;12.18;3.80;;;4.10;99.90;;;;;;5056720;28;20049;-32
2022/12/06 00:21:46;;;;;;;8.82;3.80;;;4.10;99.90;;;;;;5057094;28;20377;-34
2022/12/06 00:24:21;;;;;;;13.35;4.13;;;4.10;99.90;;;;;;5055019;28;20044;-33
2022/12/06 00:26:48;;;;;;;18.98;5.22;;;4.10;99.90;;;;;;5056183;28;20052;-34
2022/12/06 00:29:17;;;;;;;14.75;4.65;;;3.90;99.90;;;;;;5038982;28;20044;-33
2022/12/06 00:31:43;;;;;;;8.90;3.80;;;4.00;99.90;;;;;;5056103;28;20045;-33
2022/12/06 00:34:09;;;;;;;12.20;4.15;;;3.90;99.90;;;;;;5055989;28;20098;-32
2022/12/06 00:36:37;;;;;;;10.07;4.13;;;3.80;99.90;;;;;;5056040;28;20048;-33
2022/12/06 00:39:08;;;;;;;12.77;4.40;;;3.80;99.90;;;;;;5055969;28;20071;-33
2022/12/06 00:41:34;;;;;;;14.82;4.25;;;3.70;99.90;;;;;;5055949;28;20060;-33
2022/12/06 00:44:00;;;;;;;12.10;3.70;;;3.80;99.90;;;;;;5055910;28;20041;-34
2022/12/06 00:46:28;;;;;;;13.20;3.50;;;3.80;99.90;;;;;;5038304;28;20072;-33
2022/12/06 00:48:55;;;;;;;8.75;4.28;;;3.90;99.90;;;;;;5056558;28;20040;-33
2022/12/06 00:51:22;;;;;;;9.52;3.35;;;3.90;99.90;;;;;;5055854;28;20059;-34
2022/12/06 00:53:48;;;;;;;14.10;3.70;;;4.00;99.90;;;;;;5055630;28;20037;-34
2022/12/06 00:56:14;;;;;;;10.73;2.83;;;4.00;99.90;;;;;;5055742;28;20084;-33
2022/12/06 00:58:41;;;;;;;10.93;2.97;;;4.10;99.90;;;;;;5055624;28;20051;-33
2022/12/06 01:01:12;;;;;;;13.75;3.30;;;4.20;99.90;;;;;;5055565;28;20477;-33
2022/12/06 01:03:39;;;;;;;7.97;2.40;;;4.20;99.90;;;;;;5055517;28;20076;-33
2022/12/06 01:06:07;;;;;;;6.45;2.30;;;4.20;99.90;;;;;;5055444;28;20045;-34
2022/12/06 01:08:33;;;;;;;5.00;1.63;;;4.20;99.90;;;;;;5055424;28;20056;-34
2022/12/06 01:11:00;;;;;;;11.43;3.65;;;4.20;99.90;;;;;;5055578;28;20524;-33
2022/12/06 01:13:26;;;;;;;6.97;1.60;;;4.10;99.90;;;;;;5054287;28;20143;-32
2022/12/06 01:15:53;;;;;;;10.55;1.65;;;4.10;99.90;;;;;;5055583;28;20123;-33
2022/12/06 01:18:19;;;;;;;4.13;1.52;;;4.10;99.90;;;;;;5038534;28;20064;-33
2022/12/06 01:20:45;;;;;;;7.55;1.23;;;4.00;99.90;;;;;;5055100;28;20091;-34
2022/12/06 01:23:11;;;;;;;4.68;1.42;;;4.00;99.90;;;;;;5054821;28;20411;-33
2022/12/06 01:25:37;;;;;;;7.13;1.65;;;4.00;99.90;;;;;;5055897;28;20037;-33
2022/12/06 01:28:03;;;;;;;7.15;1.38;;;4.00;99.90;;;;;;5055290;28;20084;-33
2022/12/06 01:30:28;;;;;;;6.97;1.48;;;3.80;99.90;;;;;;5055056;28;20049;-33
2022/12/06 01:32:54;;;;;;;7.45;1.35;;;3.80;99.90;;;;;;5055151;28;20052;-33
2022/12/06 01:35:20;;;;;;;4.35;1.40;;;3.80;99.90;;;;;;5055461;28;20538;-32
2022/12/06 01:37:45;;;;;;;4.95;1.40;;;3.80;99.90;;;;;;5055398;28;20052;-32
2022/12/06 01:40:12;;;;;;;3.05;1.05;;;3.70;99.90;;;;;;5054788;28;20483;-36
2022/12/06 01:42:37;;;;;;;4.88;1.23;;;3.80;99.90;;;;;;5054722;28;20049;-34
2022/12/06 01:45:04;;;;;;;4.38;1.00;;;3.70;99.90;;;;;;5054943;28;20103;-34
2022/12/06 01:47:37;;;;;;;7.55;1.48;;;3.70;99.90;;;;;;5055167;28;20068;-33
2022/12/06 01:50:05;;;;;;;5.47;1.38;;;3.70;99.90;;;;;;5054685;28;20044;-33
2022/12/06 01:53:05;;;;;;;3.83;1.17;;;3.70;99.90;;;;;;5053790;28;20060;-33
2022/12/06 01:55:35;;;;;;;2.88;1.10;;;3.70;99.90;;;;;;5053342;28;20049;-33
2022/12/06 01:58:08;;;;;;;7.28;2.22;;;3.60;99.90;;;;;;5053290;28;20403;-33
2022/12/06 02:00:34;;;;;;;7.53;1.30;;;3.70;99.90;;;;;;5054520;28;20095;-33
2022/12/06 02:03:01;;;;;;;3.10;1.00;;;3.70;99.90;;;;;;5054350;28;20041;-33
2022/12/06 02:05:28;;;;;;;2.38;1.00;;;3.80;99.90;;;;;;5054289;28;20043;-32
2022/12/06 02:07:55;;;;;;;4.32;1.33;;;3.70;99.90;;;;;;5054286;28;20088;-33
2022/12/06 02:10:21;;;;;;;3.92;1.10;;;3.70;99.90;;;;;;5054225;28;20083;-33
2022/12/06 02:12:55;;;;;;;11.77;1.67;;;3.70;99.90;;;;;;5054461;28;20106;-33
2022/12/06 02:15:30;;;;;;;4.00;1.50;;;3.80;99.90;;;;;;5054237;28;20049;-34
2022/12/06 02:18:17;;;;;;;6.80;1.73;;;3.70;99.90;;;;;;5053578;28;20052;-33
2022/12/06 02:21:15;;;;;;;6.70;1.50;;;3.70;99.90;;;;;;5054206;28;20052;-32
2022/12/06 02:23:57;;;;;;;4.35;1.30;;;3.70;99.90;;;;;;5038093;28;20049;-33
2022/12/06 02:26:35;;;;;;;5.40;1.48;;;3.70;99.90;;;;;;5053053;28;20136;-34
2022/12/06 02:29:27;;;;;;;7.93;1.70;;;3.70;99.90;;;;;;5054263;28;20051;-34
2022/12/06 02:32:03;;;;;;;6.20;1.80;;;3.80;99.90;;;;;;5053481;28;20048;-33
2022/12/06 02:34:41;;;;;;;4.55;1.80;;;3.90;99.90;;;;;;5054108;28;20045;-35
2022/12/06 02:37:36;;;;;;;4.68;1.92;;;3.80;99.90;;;;;;5053138;28;20079;-33
2022/12/06 02:40:41;;;;;;;9.63;2.00;;;4.00;99.90;;;;;;5054600;28;20088;-32
2022/12/06 02:43:18;;;;;;;5.63;1.90;;;3.90;99.90;;;;;;5049297;28;20065;-33
2022/12/06 02:45:50;;;;;;;5.05;2.20;;;3.90;99.90;;;;;;5052973;28;20048;-32
2022/12/06 02:48:18;;;;;;;8.57;2.10;;;3.90;99.90;;;;;;5054470;28;20052;-33
2022/12/06 02:50:48;;;;;;;5.47;2.20;;;4.00;99.90;;;;;;5054154;28;20064;-32
2022/12/06 02:53:18;;;;;;;6.43;3.17;;;3.90;99.90;;;;;;5054111;28;20041;-32
2022/12/06 02:55:45;;;;;;;6.07;2.75;;;4.00;99.90;;;;;;5052869;28;20075;-32
2022/12/06 02:58:11;;;;;;;6.05;2.47;;;4.00;99.90;;;;;;5053567;28;20055;-35
2022/12/06 03:00:43;;;;;;;5.47;2.65;;;4.00;99.90;;;;;;5052497;28;20128;-34
2022/12/06 03:03:26;;;;;;;6.25;2.50;;;4.00;99.90;;;;;;5053441;28;20041;-34
2022/12/06 03:06:01;;;;;;;12.57;2.67;;;4.10;99.90;;;;;;5053120;28;20056;-34
2022/12/06 03:08:32;;;;;;;5.95;2.05;;;4.00;99.90;;;;;;5052224;28;20407;-34
2022/12/06 03:11:01;;;;;;;8.30;2.03;;;4.10;99.90;;;;;;5053682;28;20056;-34
2022/12/06 03:13:59;;;;;;;10.10;2.25;;;4.10;99.90;;;;;;5052986;28;20064;-34
2022/12/06 03:16:40;;;;;;;7.07;1.75;;;4.10;99.90;;;;;;5054468;28;20075;-34
2022/12/06 03:19:18;;;;;;;4.63;1.40;;;4.00;99.90;;;;;;5053093;28;20131;-34
2022/12/06 03:21:49;;;;;;;5.32;2.20;;;4.00;99.90;;;;;;5054034;28;20049;-35
2022/12/06 03:24:16;;;;;;;6.60;1.58;;;3.90;99.90;;;;;;5052423;28;20467;-35
2022/12/06 03:26:47;;;;;;;3.33;1.40;;;3.90;99.90;;;;;;5051961;28;20395;-35
2022/12/06 03:29:15;;;;;;;3.30;1.00;;;3.80;99.90;;;;;;5053185;28;20045;-35
2022/12/06 03:31:44;;;;;;;4.20;1.40;;;3.70;99.90;;;;;;5053170;28;20041;-35
2022/12/06 03:34:26;;;;;;;7.22;1.50;;;3.70;99.90;;;;;;5052762;28;20045;-35
2022/12/06 03:36:53;;;;;;;2.78;1.48;;;3.60;99.90;;;;;;5055890;28;20049;-35
2022/12/06 03:39:27;;;;;;;2.47;1.02;;;3.50;99.90;;;;;;5057072;28;20078;-34
2022/12/06 03:41:57;;;;;;;3.75;1.08;;;3.40;99.90;;;;;;5057953;28;20385;-34
2022/12/06 03:44:24;;;;;;;6.38;1.50;;;3.10;99.90;;;;;;5057606;28;20474;-34
2022/12/06 03:46:55;;;;;;;5.10;1.48;;;3.00;99.90;;;;;;5056970;28;20137;-34
2022/12/06 03:49:31;;;;;;;2.75;0.93;;;2.80;99.90;;;;;;5057039;28;20060;-34
2022/12/06 03:51:58;;;;;;;2.30;1.05;;;2.70;99.90;;;;;;5057428;28;20053;-34
2022/12/06 03:54:23;;;;;;;4.57;1.25;;;2.60;99.90;;;;;;5055875;28;20075;-34
2022/12/06 03:56:49;;;;;;;4.97;1.40;;;2.40;99.90;;;;;;5055797;28;20486;-33
2022/12/06 03:59:15;;;;;;;3.45;1.30;;;2.30;99.90;;;;;;5055547;28;20049;-35
2022/12/06 04:01:40;;;;;;;7.20;1.73;;;2.20;99.90;;;;;;5056737;28;20088;-34
2022/12/06 04:04:06;;;;;;;4.25;1.55;;;2.10;99.90;;;;;;5056701;28;20444;-34
2022/12/06 04:06:32;;;;;;;5.75;1.73;;;2.10;99.90;;;;;;5056572;28;20049;-34
2022/12/06 04:09:51;;;;;;;5.30;1.70;;;2.10;99.90;;;;;;5057111;28;20045;-35
2022/12/06 04:11:44;;;;;;;6.20;1.75;;;2.00;99.90;;;;;;5056482;28;20048;-34
2022/12/06 04:14:09;;;;;;;6.50;1.63;;;2.00;99.90;;;;;;5056459;28;20052;-33
2022/12/06 04:19:20;;;;;;;6.03;1.20;;;1.80;99.90;;;;;;5056319;28;20541;-34
2022/12/06 04:24:30;;;;;;;6.53;1.67;;;2.00;99.90;;;;;;5056879;28;20110;-34
2022/12/06 04:40:41;;;;;;;7.22;1.60;;;1.20;99.90;;;;;;5056022;28;20057;-34
2022/12/06 04:45:53;;;;;;;3.40;1.65;;;1.10;99.90;;;;;;5055216;28;20063;-34
2022/12/06 04:48:18;;;;;;;4.30;2.20;;;1.10;99.90;;;;;;5054612;28;20044;-34
2022/12/06 04:50:50;;;;;;;10.05;2.67;;;1.90;99.90;;;;;;5055688;28;20045;-34
2022/12/06 04:53:17;;;;;;;7.70;2.53;;;1.30;99.90;;;;;;5055628;28;20045;-34
2022/12/06 04:55:46;;;;;;;9.13;2.22;;;1.50;99.90;;;;;;5055709;28;20092;-34
2022/12/06 04:58:13;;;;;;;8.98;2.70;;;1.50;99.90;;;;;;5055700;28;20124;-34
2022/12/06 05:00:42;;;;;;;8.38;2.70;;;1.40;99.90;;;;;;5055639;28;20084;-35
2022/12/06 05:03:12;;;;;;;5.85;2.83;;;1.40;99.90;;;;;;5055536;28;20041;-34
2022/12/06 05:05:38;;;;;;;8.27;3.65;;;1.40;99.90;;;;;;5054312;28;20049;-34
2022/12/06 05:08:04;;;;;;;10.48;3.75;;;1.50;99.90;;;;;;5055486;28;20113;-34
2022/12/06 05:10:30;;;;;;;9.45;3.55;;;1.60;99.90;;;;;;5054499;28;20053;-34
2022/12/06 05:12:56;;;;;;;11.95;4.35;;;1.60;99.90;;;;;;5055273;28;20045;-35
2022/12/06 05:15:22;;;;;;;10.13;3.15;;;1.60;99.90;;;;;;5055807;28;20111;-35
2022/12/06 05:17:48;;;;;;;17.35;4.32;;;1.60;99.90;;;;;;5055534;28;20075;-34
2022/12/06 05:20:13;;;;;;;17.90;6.68;;;1.50;99.90;;;;;;5055090;28;20053;-34
2022/12/06 05:22:40;;;;;;;14.98;6.38;;;2.10;99.90;;;;;;5053929;28;20045;-34
2022/12/06 05:25:06;;;;;;;15.30;5.50;;;1.70;99.90;;;;;;5053987;28;20037;-33
2022/12/06 05:27:32;;;;;;;13.23;5.05;;;1.60;99.90;;;;;;5055557;28;20051;-34
2022/12/06 05:29:58;;;;;;;16.15;5.15;;;1.60;99.90;;;;;;5054694;28;20491;-33
2022/12/06 05:32:24;;;;;;;11.40;4.22;;;1.50;99.90;;;;;;5054973;28;20044;-34
2022/12/06 05:34:49;;;;;;;21.23;5.25;;;1.30;99.90;;;;;;5053680;28;20071;-33
2022/12/06 05:37:15;;;;;;;18.95;4.93;;;1.20;99.90;;;;;;5054228;28;20128;-33
2022/12/06 05:39:41;;;;;;;19.77;4.90;;;1.10;99.90;;;;;;5053675;28;20044;-33
2022/12/06 05:42:07;;;;;;;17.23;4.83;;;0.90;99.90;;;;;;5054850;28;20079;-34
2022/12/06 05:44:33;;;;;;;19.27;4.77;;;0.90;99.90;;;;;;5054739;28;20033;-35
2022/12/06 05:46:58;;;;;;;17.80;5.15;;;1.00;99.90;;;;;;5054288;28;20051;-33
2022/12/06 05:49:24;;;;;;;17.42;5.22;;;0.90;99.90;;;;;;5054945;28;20088;-34
2022/12/06 05:51:50;;;;;;;18.27;5.15;;;1.10;99.90;;;;;;5054637;28;20041;-33
2022/12/06 05:54:16;;;;;;;16.80;5.20;;;1.00;99.90;;;;;;5055068;28;20047;-33
2022/12/06 05:56:41;;;;;;;16.15;5.30;;;1.10;99.90;;;;;;5053600;28;20053;-34
2022/12/06 05:59:07;;;;;;;16.20;4.75;;;1.10;99.90;;;;;;5036816;28;20056;-33
2022/12/06 06:01:33;;;;;;;13.50;4.72;;;1.30;99.90;;;;;;5053260;28;20049;-34
2022/12/06 06:04:00;;;;;;;15.40;5.30;;;1.30;99.90;;;;;;5053738;28;20194;-33
2022/12/06 06:06:26;;;;;;;20.55;6.05;;;1.40;99.90;;;;;;5054045;28;20491;-34
2022/12/06 06:08:51;;;;;;;21.73;6.65;;;1.60;99.90;;;;;;5054264;28;20056;-33
2022/12/06 06:11:17;;;;;;;19.27;6.43;;;1.90;99.90;;;;;;5053025;28;20045;-33
2022/12/06 06:13:43;;;;;;;10.48;4.47;;;1.60;99.90;;;;;;5053922;28;20041;-33
2022/12/06 06:16:08;;;;;;;12.90;5.20;;;1.50;99.90;;;;;;5054752;28;20451;-33
2022/12/06 06:18:34;;;;;;;13.15;4.65;;;1.70;99.90;;;;;;5052998;28;20037;-33
2022/12/06 06:21:00;;;;;;;8.50;4.32;;;1.70;99.90;;;;;;5054833;28;20049;-33
2022/12/06 06:23:27;;;;;;;11.40;4.20;;;1.80;99.90;;;;;;5052907;28;20514;-33
2022/12/06 06:25:53;;;;;;;10.98;4.40;;;1.50;99.90;;;;;;5052877;28;20041;-32
2022/12/06 06:28:19;;;;;;;10.25;4.00;;;1.50;99.90;;;;;;5053926;28;20044;-33
2022/12/06 06:30:45;;;;;;;12.27;4.70;;;1.30;99.90;;;;;;5052702;28;20088;-33
2022/12/06 06:33:12;;;;;;;15.10;6.22;;;1.20;99.90;;;;;;5054608;28;20450;-33
2022/12/06 06:35:38;;;;;;;13.75;5.22;;;1.20;99.90;;;;;;5053828;28;20057;-33
2022/12/06 06:38:04;;;;;;;23.95;7.07;;;1.20;99.90;;;;;;5052853;28;20041;-33
2022/12/06 06:40:30;;;;;;;17.08;5.22;;;1.20;99.90;;;;;;5053752;28;20040;-33
2022/12/06 06:42:56;;;;;;;14.65;5.78;;;1.20;99.90;;;;;;5052525;28;20048;-33
2022/12/06 06:45:23;;;;;;;18.60;5.28;;;1.10;99.90;;;;;;5053287;28;20051;-33
2022/12/06 06:47:49;;;;;;;16.20;5.60;;;0.90;99.90;;;;;;5053616;28;20049;-33
2022/12/06 06:50:16;;;;;;;12.88;5.80;;;0.80;99.90;;;;;;5052396;28;20049;-32
2022/12/06 06:52:41;;;;;;;11.98;5.00;;;0.70;99.90;;;;;;5053492;28;20545;-33
2022/12/06 06:55:08;;;;;;;14.85;5.05;;;0.80;99.90;;;;;;5052243;28;20041;-33
2022/12/06 06:57:35;;;;;;;14.10;4.93;;;0.70;99.90;;;;;;5053563;28;20054;-33
2022/12/06 07:00:01;;;;;;;23.00;6.55;;;0.90;99.90;;;;;;5053810;28;20049;-33
2022/12/06 07:02:26;;;;;;;14.65;6.10;;;0.90;99.90;;;;;;5053493;28;20088;-33
2022/12/06 07:04:52;;;;;;;11.70;5.28;;;0.90;99.90;;;;;;5053468;28;20081;-33
2022/12/06 07:07:18;;;;;;;21.20;5.85;;;0.80;99.90;;;;;;5053425;28;20071;-32
2022/12/06 07:09:43;;;;;;;18.70;5.07;;;0.80;99.90;;;;;;5053399;28;20443;-32
2022/12/06 07:12:09;;;;;;;20.08;5.60;;;0.80;99.90;;;;;;5052707;28;20049;-32
2022/12/06 07:14:35;;;;;;;19.47;7.13;;;0.80;99.90;;;;;;5053115;28;20140;-32
2022/12/06 07:17:01;;;;;;;14.73;5.95;;;0.80;99.90;;;;;;5052454;28;20052;-32
2022/12/06 07:19:26;;;;;;;17.90;6.15;;;0.80;99.90;;;;;;5052089;28;20057;-33
2022/12/06 07:21:52;;;;;;;28.65;11.00;;;0.70;99.90;;;;;;5052081;28;20049;-32
2022/12/06 07:24:18;;;;;;;23.17;10.55;;;0.60;99.90;;;;;;5053244;28;20044;-33
2022/12/06 07:26:43;;;;;;;21.17;7.03;;;0.50;99.90;;;;;;5053229;28;20506;-32
2022/12/06 07:29:09;;;;;;;17.65;7.55;;;0.60;99.90;;;;;;5053317;28;20064;-33
2022/12/06 07:31:35;;;;;;;24.00;6.70;;;0.40;99.90;;;;;;5053602;28;20053;-32
2022/12/06 07:34:02;;;;;;;20.27;6.33;;;0.60;99.90;;;;;;5053233;28;20063;-32
2022/12/06 07:36:30;;;;;;;14.10;5.97;;;0.60;99.90;;;;;;5053248;28;20041;-32
2022/12/06 07:38:57;;;;;;;18.25;6.07;;;0.60;99.90;;;;;;5053317;28;20076;-32
2022/12/06 07:46:56;;;;;;;18.85;6.70;;;0.60;99.90;;;;;;5054113;28;20072;-34
2022/12/06 07:49:21;;;;;;;23.77;6.40;;;0.80;99.90;;;;;;5053163;28;20057;-32
2022/12/06 07:51:47;;;;;;;28.27;7.38;;;0.80;99.90;;;;;;5053121;28;20045;-33
2022/12/06 07:54:14;;;;;;;20.27;7.47;;;0.80;99.90;;;;;;5053077;28;20183;-33
2022/12/06 07:56:41;;;;;;;19.35;6.10;;;0.70;99.90;;;;;;5053094;28;20059;-32
2022/12/06 07:59:07;;;;;;;18.35;6.53;;;0.60;99.90;;;;;;5053604;28;20109;-33
2022/12/06 08:01:32;;;;;;;14.93;6.63;;;0.70;99.90;;;;;;5051888;28;20051;-32
2022/12/06 08:03:59;;;;;;;22.15;7.43;;;0.60;99.90;;;;;;5053021;28;20119;-33
2022/12/06 08:06:25;;;;;;;16.35;6.70;;;0.70;99.90;;;;;;5052963;28;20558;-32
2022/12/06 08:08:51;;;;;;;17.42;6.70;;;1.40;99.90;;;;;;5051773;28;20083;-33
2022/12/06 08:11:17;;;;;;;13.00;5.75;;;0.90;99.90;;;;;;5052821;28;20045;-32
2022/12/06 08:13:42;;;;;;;17.10;5.68;;;0.90;99.90;;;;;;5052715;28;20047;-32
2022/12/06 08:16:11;;;;;;;24.40;7.30;;;1.20;99.90;;;;;;5053628;28;20064;-33
2022/12/06 08:18:38;;;;;;;15.57;6.38;;;1.20;99.90;;;;;;5052841;28;20045;-32
2022/12/06 08:21:05;;;;;;;12.77;6.20;;;1.20;99.90;;;;;;5052769;28;20060;-33
2022/12/06 08:23:31;;;;;;;13.63;5.78;;;1.30;99.90;;;;;;5055813;28;20040;-33
2022/12/06 08:25:58;;;;;;;13.48;6.05;;;1.50;99.90;;;;;;5056932;28;20084;-33
2022/12/06 08:28:24;;;;;;;16.20;7.40;;;1.60;99.90;;;;;;5056363;28;20446;-33
2022/12/06 08:30:51;;;;;;;15.57;7.22;;;1.60;99.90;;;;;;5056292;28;20103;-33
2022/12/06 08:33:16;;;;;;;11.70;5.43;;;1.80;99.90;;;;;;5055454;28;20106;-33
2022/12/06 08:35:42;;;;;;;18.85;6.85;;;1.90;99.90;;;;;;5038641;28;20053;-33
2022/12/06 08:38:08;;;;;;;13.13;7.50;;;2.00;99.90;;;;;;5038911;28;20438;-33
2022/12/06 08:40:34;;;;;;;18.83;7.07;;;2.30;99.90;;;;;;5038974;28;20041;-33
2022/12/06 08:42:59;;;;;;;14.68;5.75;;;2.10;99.90;;;;;;5054937;28;20076;-33
2022/12/06 08:45:25;;;;;;;14.07;6.35;;;2.20;99.90;;;;;;5056051;28;20044;-32
2022/12/06 08:47:51;;;;;;;17.38;7.28;;;2.20;99.90;;;;;;5056046;28;20076;-33
2022/12/06 08:50:17;;;;;;;11.82;5.25;;;2.80;99.90;;;;;;5056730;28;20055;-33
2022/12/06 08:52:43;;;;;;;18.02;7.13;;;2.40;99.90;;;;;;5055895;28;20117;-33
2022/12/06 08:55:08;;;;;;;8.00;4.88;;;2.30;99.90;;;;;;5055765;28;20088;-34
2022/12/06 08:57:34;;;;;;;10.70;5.07;;;2.50;99.90;;;;;;5056080;28;20429;-33
2022/12/06 09:00:00;;;;;;;14.95;5.45;;;2.40;99.90;;;;;;5054840;28;20037;-33
2022/12/06 09:02:26;;;;;;;10.32;5.50;;;2.60;99.90;;;;;;5055760;28;20400;-33
2022/12/06 09:04:52;;;;;;;10.13;4.00;;;2.50;99.90;;;;;;5056262;28;20357;-34
2022/12/06 09:07:18;;;;;;;8.63;5.38;;;2.50;99.90;;;;;;5055537;28;20037;-33
2022/12/06 09:09:45;;;;;;;9.30;4.32;;;2.70;99.90;;;;;;5055810;28;20127;-33
2022/12/06 09:12:11;;;;;;;10.20;4.35;;;2.40;99.90;;;;;;5055212;28;20495;-32
2022/12/06 09:14:37;;;;;;;7.90;3.97;;;2.50;99.90;;;;;;5053997;28;20060;-33
2022/12/06 09:17:04;;;;;;;8.50;3.85;;;2.50;99.90;;;;;;5055524;28;20053;-33
2022/12/06 09:19:30;;;;;;;9.98;4.82;;;2.40;99.90;;;;;;5038058;28;20155;-33
2022/12/06 09:21:56;;;;;;;9.85;4.45;;;2.50;99.90;;;;;;5055934;28;20183;-33
2022/12/06 09:24:21;;;;;;;7.00;3.83;;;2.60;99.90;;;;;;5054192;28;20142;-33
2022/12/06 09:26:47;;;;;;;12.45;4.35;;;2.70;99.90;;;;;;5055271;28;20044;-33
2022/12/06 09:29:15;;;;;;;8.95;4.15;;;2.80;99.90;;;;;;5054531;28;20387;-34
2022/12/06 09:31:41;;;;;;;7.35;3.75;;;2.90;99.90;;;;;;5056003;28;20076;-33
2022/12/06 09:34:08;;;;;;;9.73;3.92;;;3.10;99.90;;;;;;5054677;28;20064;-32
2022/12/06 09:36:56;;;;;;;7.30;3.63;;;3.20;99.90;;;;;;5055905;28;20045;-32
2022/12/06 09:39:35;;;;;;;9.05;3.78;;;3.30;99.90;;;;;;5054669;28;20507;-33
2022/12/06 09:42:39;;;;;;;12.77;3.65;;;3.30;99.90;;;;;;5055007;28;20044;-32
2022/12/06 09:45:07;;;;;;;6.97;3.78;;;3.70;99.90;;;;;;5020736;28;20049;-33
2022/12/06 09:47:51;;;;;;;8.45;3.70;;;3.90;99.90;;;;;;5054956;28;20067;-33
2022/12/06 09:50:25;;;;;;;;;;;4.50;99.90;;;;;;5037401;28;20053;-33
2022/12/06 09:53:15;;;;;;;9.02;3.38;;;4.10;99.90;;;;;;5055515;28;19927;-33
2022/12/06 09:55:44;;;;;;;6.30;2.90;;;4.30;99.90;;;;;;5054638;28;20403;-33
2022/12/06 09:58:12;;;;;;;9.15;3.05;;;4.40;99.90;;;;;;5054638;28;20051;-33
2022/12/06 10:01:10;;;;;;;5.10;2.20;;;4.60;99.90;;;;;;5054514;28;20479;-33
2022/12/06 10:04:11;;;;;;;4.75;2.58;;;4.70;99.90;;;;;;5054787;28;20036;-35
2022/12/06 10:06:46;;;;;;;6.50;2.13;;;4.80;99.90;;;;;;5020690;28;20475;-34
2022/12/06 10:09:28;;;;;;;6.50;2.17;;;4.80;99.90;;;;;;5053609;28;20138;-33
2022/12/06 10:12:04;;;;;;;3.42;1.88;;;4.70;99.90;;;;;;5054457;28;20041;-38
2022/12/06 10:14:44;;;;;;;5.35;2.30;;;4.70;99.90;;;;;;5036958;28;20487;-34
2022/12/06 10:17:30;;;;;;;3.97;2.00;;;4.60;99.90;;;;;;5053897;28;20403;-34
2022/12/06 10:20:07;;;;;;;4.05;2.28;;;4.50;99.90;;;;;;5054485;28;20060;-34
2022/12/06 10:22:52;;;;;;;8.10;2.97;;;4.60;99.90;;;;;;5054240;28;20487;-34
2022/12/06 10:25:30;;;;;;;6.95;2.00;;;4.80;99.90;;;;;;5054095;28;20123;-35
2022/12/06 10:28:08;;;;;;;5.45;1.85;;;5.00;99.90;;;;;;5054193;28;20080;-35
2022/12/06 10:30:50;;;;;;;6.32;2.45;;;5.00;99.90;;;;;;5054910;28;20122;-36
2022/12/06 10:33:25;;;;;;;4.05;2.22;;;5.10;99.90;;;;;;5052872;28;20053;-35
2022/12/06 10:36:06;;;;;;;3.70;1.50;;;5.20;99.90;;;;;;5054238;28;20127;-35
2022/12/06 10:38:50;;;;;;;3.58;1.80;;;5.40;99.90;;;;;;5054784;28;20037;-35
2022/12/06 10:41:25;;;;;;;4.95;1.50;;;5.50;99.90;;;;;;5054443;28;20052;-36
2022/12/06 10:44:12;;;;;;;4.00;1.52;;;5.40;99.90;;;;;;5054189;28;20041;-34
2022/12/06 10:47:22;;;;;;;5.95;1.88;;;5.40;99.90;;;;;;5052895;28;20479;-37
2022/12/06 10:50:07;;;;;;;2.92;1.60;;;5.40;99.90;;;;;;5012573;28;20045;-36
2022/12/06 10:52:42;;;;;;;5.28;1.75;;;5.50;99.90;;;;;;5012098;28;20132;-38
2022/12/06 10:55:08;;;;;;;8.90;1.98;;;5.60;99.90;;;;;;5039550;28;20049;-35
2022/12/06 10:57:49;;;;;;;6.13;1.73;;;5.60;99.90;;;;;;5053668;28;20131;-36
2022/12/06 11:00:24;;;;;;;3.55;1.85;;;5.70;99.90;;;;;;5054486;28;20144;-38
2022/12/06 11:03:10;;;;;;;5.40;2.10;;;5.70;99.90;;;;;;5036204;28;20057;-36
2022/12/06 11:06:13;;;;;;;4.03;1.83;;;5.60;99.90;;;;;;5054114;28;20051;-39
2022/12/06 11:08:45;;;;;;;3.60;1.75;;;5.70;99.90;;;;;;5052378;28;20053;-35
2022/12/06 11:11:18;;;;;;;4.20;1.70;;;5.70;99.90;;;;;;5053199;28;20048;-36
2022/12/06 11:13:50;;;;;;;5.22;1.92;;;5.70;99.90;;;;;;5053458;28;20124;-39
2022/12/06 11:16:26;;;;;;;4.95;2.17;;;5.60;99.90;;;;;;5052989;28;20053;-38
2022/12/06 11:18:59;;;;;;;5.53;2.75;;;5.70;99.90;;;;;;5054335;28;20049;-39
2022/12/06 11:21:39;;;;;;;6.07;1.85;;;5.70;99.90;;;;;;5053457;28;20049;-38
2022/12/06 11:24:37;;;;;;;4.68;1.98;;;5.80;99.90;;;;;;5053711;28;20119;-39
2022/12/06 11:27:21;;;;;;;4.10;1.92;;;5.90;99.90;;;;;;5037538;28;20056;-36
2022/12/06 11:29:48;;;;;;;5.60;1.85;;;5.90;99.90;;;;;;5054009;28;20102;-38
2022/12/06 11:32:16;;;;;;;4.57;2.15;;;5.80;99.90;;;;;;5052077;28;20037;-39
2022/12/06 11:34:48;;;;;;;3.15;1.60;;;5.60;99.90;;;;;;5053203;28;20041;-35
2022/12/06 11:37:19;;;;;;;4.20;1.70;;;5.50;99.90;;;;;;5054184;28;20048;-38
2022/12/06 11:39:48;;;;;;;3.50;1.50;;;5.40;99.90;;;;;;5052690;28;20091;-39
2022/12/06 11:42:18;;;;;;;5.70;1.85;;;5.40;99.90;;;;;;5053273;28;20051;-37
2022/12/06 11:44:49;;;;;;;7.10;2.03;;;5.50;99.90;;;;;;5053220;28;20491;-35
2022/12/06 11:47:18;;;;;;;6.55;2.72;;;5.70;99.90;;;;;;5053825;28;20441;-38
2022/12/06 11:49:45;;;;;;;4.22;2.00;;;5.70;99.90;;;;;;5053694;28;20502;-38
2022/12/06 11:52:35;;;;;;;3.75;1.90;;;5.80;99.90;;;;;;5053021;28;20128;-40
2022/12/06 11:55:30;;;;;;;3.22;1.60;;;6.00;99.90;;;;;;5053337;28;20037;-38
2022/12/06 11:58:34;;;;;;;4.03;2.00;;;6.10;99.90;;;;;;5053393;28;20083;-37
2022/12/06 12:01:09;;;;;;;6.35;1.83;;;6.10;99.90;;;;;;5056933;28;20052;-38
2022/12/06 12:03:38;;;;;;;13.23;2.05;;;6.20;99.90;;;;;;5056941;28;20053;-36
2022/12/06 12:06:26;;;;;;;3.65;1.73;;;6.30;99.90;;;;;;5056793;28;20491;-38
2022/12/06 12:08:58;;;;;;;2.55;1.30;;;6.20;99.90;;;;;;5056790;28;20048;-37
2022/12/06 12:11:38;;;;;;;3.33;1.40;;;6.30;99.90;;;;;;5057313;28;20386;-37
2022/12/06 12:14:16;;;;;;;4.65;1.90;;;6.20;99.90;;;;;;5056737;28;20087;-36
2022/12/06 12:16:46;;;;;;;5.32;1.60;;;6.20;99.90;;;;;;5057471;28;20045;-39
2022/12/06 12:19:57;;;;;;;5.10;1.90;;;6.20;99.90;;;;;;5055935;28;20045;-39
2022/12/06 12:22:26;;;;;;;3.60;1.48;;;6.20;99.90;;;;;;5054766;28;20168;-36
2022/12/06 12:24:53;;;;;;;4.43;2.10;;;6.10;99.90;;;;;;5056412;28;20045;-39
2022/12/06 12:27:39;;;;;;;6.78;2.33;;;6.10;99.90;;;;;;5056405;28;20053;-39
2022/12/06 12:30:24;;;;;;;6.53;2.03;;;6.10;99.90;;;;;;5055703;28;20052;-38
2022/12/06 12:33:07;;;;;;;4.25;1.90;;;6.10;99.90;;;;;;5056340;28;20049;-39
2022/12/06 12:35:42;;;;;;;4.80;1.85;;;6.10;99.90;;;;;;5056337;28;20467;-37
2022/12/06 12:38:15;;;;;;;2.53;1.60;;;6.10;99.90;;;;;;5056250;28;20045;-35
2022/12/06 12:40:48;;;;;;;4.13;1.70;;;6.10;99.90;;;;;;5056169;28;20402;-38
2022/12/06 12:43:24;;;;;;;7.72;2.30;;;6.10;99.90;;;;;;5049891;28;20052;-38
2022/12/06 12:46:12;;;;;;;3.65;1.73;;;6.10;99.90;;;;;;5054844;28;20048;-38
2022/12/06 12:48:41;;;;;;;4.88;1.77;;;6.00;99.90;;;;;;5056402;28;20044;-39
2022/12/06 12:51:31;;;;;;;3.38;1.15;;;6.00;99.90;;;;;;5055767;28;20056;-36
2022/12/06 12:54:17;;;;;;;5.90;1.35;;;6.10;99.90;;;;;;5055897;28;20124;-39
2022/12/06 12:56:43;;;;;;;3.92;1.27;;;6.10;99.90;;;;;;5056180;28;20396;-36
2022/12/06 12:59:19;;;;;;;3.28;1.80;;;6.20;99.90;;;;;;5056098;28;20049;-39
2022/12/06 13:01:51;;;;;;;4.15;1.60;;;6.20;99.90;;;;;;5055161;28;20048;-38
2022/12/06 13:04:24;;;;;;;4.53;1.38;;;6.20;99.90;;;;;;5055782;28;20045;-37
2022/12/06 13:07:10;;;;;;;2.38;1.20;;;6.20;99.90;;;;;;5055243;28;20067;-37
2022/12/06 13:09:50;;;;;;;1.65;1.27;;;6.30;99.90;;;;;;5054590;28;20052;-38
2022/12/06 13:12:46;;;;;;;5.43;1.60;;;6.30;99.90;;;;;;5055591;28;20222;-39
2022/12/06 13:15:19;;;;;;;4.90;1.88;;;6.40;99.90;;;;;;5055819;28;20061;-36
2022/12/06 13:17:52;;;;;;;6.05;2.22;;;6.50;99.90;;;;;;5056082;28;20045;-37
2022/12/06 13:20:26;;;;;;;3.47;1.33;;;6.50;99.90;;;;;;5055299;28;20048;-37
2022/12/06 13:22:53;;;;;;;;;;;6.40;99.90;;;;;;5055235;28;20051;-38
2022/12/06 13:25:19;;;;;;;3.20;1.33;;;6.40;99.90;;;;;;5055366;28;19928;-38
2022/12/06 13:27:49;;;;;;;5.30;1.55;;;6.40;99.90;;;;;;5054089;28;20395;-38
2022/12/06 13:30:27;;;;;;;2.58;1.65;;;6.40;99.90;;;;;;5055986;28;20049;-36
2022/12/06 13:32:58;;;;;;;5.30;2.47;;;6.30;99.90;;;;;;5055471;28;20177;-38
2022/12/06 13:35:31;;;;;;;5.05;1.85;;;6.20;99.90;;;;;;5055226;28;20053;-38
2022/12/06 13:37:59;;;;;;;;;;;6.10;99.90;;;;;;5056407;28;20057;-36
2022/12/06 13:40:45;;;;;;;6.13;1.27;;;6.10;99.90;;;;;;5055023;28;19920;-37
2022/12/06 13:43:23;;;;;;;4.93;1.48;;;6.00;99.90;;;;;;5055845;28;20383;-39